Time;durP1;ratioP1;P1;durP2;ratioP2;P2;SDS_P1;SDS_P2;PMS_P1;PMS_P2;Temp;Humidity;BMP_temperature;BMP_pressure;BME280_temperature;BME280_humidity;BME280_pressure;Samples;Min_cycle;Max_cycle;Signal;HPM_P1;HPM_P2
2023/12/21 00:02:37;;;;;;;1.30;0.60;;;;;;;;;;10483098;28;20051;-75
2023/12/21 00:07:44;;;;;;;0.70;0.52;;;;;;;;;;10471493;28;20500;-75
2023/12/21 00:12:53;;;;;;;1.60;0.80;;;;;;;;;;10447352;28;20048;-74
2023/12/21 00:18:00;;;;;;;0.50;0.40;;;;;;;;;;10435681;28;20068;-76
2023/12/21 00:23:13;;;;;;;1.08;0.60;;;;;;;;;;10481835;28;20044;-76
2023/12/21 00:28:29;;;;;;;1.65;0.75;;;;;;;;;;10469599;28;20068;-75
2023/12/21 00:33:32;;;;;;;1.95;0.70;;;;;;;;;;10462769;28;20041;-75
2023/12/21 00:38:39;;;;;;;2.42;0.80;;;;;;;;;;10430597;28;20102;-74
2023/12/21 00:43:52;;;;;;;0.90;0.60;;;;;;;;;;10451134;28;20040;-75
2023/12/21 00:49:00;;;;;;;1.30;0.60;;;;;;;;;;10448655;28;20048;-74
2023/12/21 00:54:11;;;;;;;0.73;0.40;;;;;;;;;;10447409;28;20043;-74
2023/12/21 00:59:18;;;;;;;0.75;0.30;;;;;;;;;;10449337;28;20410;-74
2023/12/21 01:04:29;;;;;;;2.38;0.40;;;;;;;;;;10465968;28;20049;-76
2023/12/21 01:09:43;;;;;;;1.50;0.70;;;;;;;;;;10490563;28;20517;-74
2023/12/21 01:14:59;;;;;;;0.60;0.50;;;;;;;;;;10465955;28;20584;-74
2023/12/21 01:20:10;;;;;;;0.30;0.30;;;;;;;;;;10461992;28;20409;-74
2023/12/21 01:25:15;;;;;;;0.93;0.50;;;;;;;;;;10492700;28;20032;-74
2023/12/21 01:30:23;;;;;;;3.55;0.70;;;;;;;;;;10475012;28;20048;-74
2023/12/21 01:35:27;;;;;;;0.57;0.40;;;;;;;;;;10475930;28;20033;-74
2023/12/21 01:40:30;;;;;;;0.57;0.38;;;;;;;;;;10492483;28;20125;-74
2023/12/21 01:45:35;;;;;;;1.10;0.40;;;;;;;;;;10465195;28;20436;-74
2023/12/21 01:50:43;;;;;;;0.40;0.30;;;;;;;;;;10471311;28;20036;-74
2023/12/21 01:55:52;;;;;;;0.50;0.32;;;;;;;;;;10483343;28;20029;-74
2023/12/21 02:07:01;;;;;;;0.52;0.30;;;;;;;;;;10471906;28;20045;-76
2023/12/21 02:12:06;;;;;;;1.27;0.30;;;;;;;;;;10471494;28;20252;-73
2023/12/21 02:17:16;;;;;;;0.35;0.32;;;;;;;;;;10486294;28;20071;-74
2023/12/21 02:22:23;;;;;;;1.05;0.40;;;;;;;;;;10463638;28;20044;-75
2023/12/21 02:27:33;;;;;;;0.90;0.52;;;;;;;;;;10469484;28;20238;-74
2023/12/21 02:32:47;;;;;;;0.30;0.30;;;;;;;;;;10460344;28;20040;-74
2023/12/21 02:37:50;;;;;;;0.43;0.30;;;;;;;;;;10459728;28;20057;-74
2023/12/21 02:42:59;;;;;;;0.50;0.32;;;;;;;;;;10455888;28;20219;-74
2023/12/21 02:48:02;;;;;;;0.30;0.30;;;;;;;;;;10471246;28;20147;-74
2023/12/21 02:53:06;;;;;;;0.30;0.30;;;;;;;;;;10434919;28;20508;-74
2023/12/21 02:58:10;;;;;;;1.48;0.47;;;;;;;;;;10476672;28;20056;-74
2023/12/21 03:03:23;;;;;;;1.55;0.57;;;;;;;;;;10478329;28;20045;-74
2023/12/21 03:08:28;;;;;;;0.30;0.30;;;;;;;;;;10453342;28;20106;-75
2023/12/21 03:13:36;;;;;;;0.40;0.40;;;;;;;;;;10473259;28;20068;-75
2023/12/21 03:24:02;;;;;;;0.82;0.32;;;;;;;;;;10465062;28;20045;-74
2023/12/21 03:29:07;;;;;;;0.40;0.35;;;;;;;;;;10469664;28;20441;-74
2023/12/21 03:34:13;;;;;;;2.15;0.38;;;;;;;;;;10471224;28;20057;-74
2023/12/21 03:39:21;;;;;;;0.15;0.15;;;;;;;;;;10460591;28;20409;-74
2023/12/21 03:44:28;;;;;;;0.13;0.10;;;;;;;;;;10456231;28;20081;-74
2023/12/21 03:49:34;;;;;;;0.50;0.38;;;;;;;;;;10460891;28;20048;-75
2023/12/21 03:54:42;;;;;;;0.43;0.40;;;;;;;;;;10483502;28;20029;-74
2023/12/21 03:59:48;;;;;;;0.50;0.30;;;;;;;;;;10458785;28;20040;-74
2023/12/21 04:04:53;;;;;;;0.30;0.30;;;;;;;;;;10469663;28;20051;-74
2023/12/21 04:09:59;;;;;;;0.20;0.20;;;;;;;;;;10471844;28;20509;-74
2023/12/21 04:15:06;;;;;;;0.22;0.15;;;;;;;;;;10451202;28;20066;-74
2023/12/21 04:20:13;;;;;;;0.45;0.15;;;;;;;;;;10493130;28;20044;-75
2023/12/21 04:25:17;;;;;;;0.20;0.20;;;;;;;;;;10474663;28;20040;-75
2023/12/21 04:30:22;;;;;;;0.32;0.20;;;;;;;;;;10471450;28;20055;-75
2023/12/21 04:35:28;;;;;;;0.10;0.10;;;;;;;;;;10462230;28;20029;-76
2023/12/21 04:40:34;;;;;;;0.73;0.20;;;;;;;;;;10475329;28;20063;-74
2023/12/21 04:45:42;;;;;;;0.38;0.10;;;;;;;;;;10434639;28;20528;-76
2023/12/21 04:50:54;;;;;;;0.22;0.20;;;;;;;;;;10479521;28;20057;-75
2023/12/21 04:55:56;;;;;;;0.30;0.20;;;;;;;;;;10468095;28;20136;-75
2023/12/21 05:01:03;;;;;;;0.10;0.10;;;;;;;;;;10449614;28;20056;-74
2023/12/21 05:06:09;;;;;;;0.10;0.10;;;;;;;;;;10472802;28;20040;-73
2023/12/21 05:11:16;;;;;;;0.40;0.30;;;;;;;;;;10480472;28;20691;-76
2023/12/21 05:16:24;;;;;;;0.55;0.30;;;;;;;;;;10449284;28;20044;-76
2023/12/21 05:21:33;;;;;;;0.10;0.08;;;;;;;;;;10466146;28;20493;-76
2023/12/21 05:26:38;;;;;;;0.50;0.22;;;;;;;;;;10467967;28;20064;-76
2023/12/21 05:31:50;;;;;;;0.20;0.20;;;;;;;;;;10455499;28;20501;-76
2023/12/21 05:37:01;;;;;;;0.05;0.05;;;;;;;;;;10467555;28;20033;-77
2023/12/21 05:42:05;;;;;;;0.00;0.00;;;;;;;;;;10470582;28;20046;-77
2023/12/21 05:52:38;;;;;;;0.15;0.13;;;;;;;;;;10476731;28;20502;-77
2023/12/21 05:57:53;;;;;;;0.47;0.25;;;;;;;;;;10477909;28;20052;-75
2023/12/21 06:03:00;;;;;;;0.65;0.25;;;;;;;;;;10458067;28;20049;-75
2023/12/21 06:08:06;;;;;;;0.20;0.20;;;;;;;;;;10472659;28;20384;-74
2023/12/21 06:13:17;;;;;;;0.10;0.10;;;;;;;;;;10457458;28;20040;-74
2023/12/21 06:18:24;;;;;;;0.47;0.20;;;;;;;;;;10455441;28;20090;-74
2023/12/21 06:23:30;;;;;;;0.20;0.20;;;;;;;;;;10468723;28;20251;-73
2023/12/21 06:28:41;;;;;;;1.33;0.43;;;;;;;;;;10460886;28;20049;-73
2023/12/21 06:33:54;;;;;;;0.30;0.30;;;;;;;;;;10455583;28;20135;-76
2023/12/21 06:38:58;;;;;;;0.63;0.30;;;;;;;;;;10459814;28;20045;-75
2023/12/21 06:44:01;;;;;;;0.20;0.20;;;;;;;;;;10485191;28;20044;-74
2023/12/21 06:49:13;;;;;;;0.20;0.20;;;;;;;;;;10466359;28;20040;-75
2023/12/21 06:54:19;;;;;;;0.17;0.17;;;;;;;;;;10469614;28;20079;-75
2023/12/21 06:59:31;;;;;;;0.70;0.40;;;;;;;;;;10441786;28;20129;-75
2023/12/21 07:04:40;;;;;;;0.63;0.30;;;;;;;;;;10475961;28;20032;-76
2023/12/21 07:09:57;;;;;;;0.30;0.30;;;;;;;;;;10455374;28;20057;-75
2023/12/21 07:15:09;;;;;;;0.38;0.30;;;;;;;;;;10456500;28;20068;-75
2023/12/21 07:20:21;;;;;;;0.10;0.10;;;;;;;;;;10479243;28;20040;-76
2023/12/21 07:25:26;;;;;;;0.30;0.30;;;;;;;;;;10453501;28;20036;-76
2023/12/21 07:30:31;;;;;;;0.75;0.20;;;;;;;;;;10453007;28;20418;-76
2023/12/21 07:35:41;;;;;;;0.63;0.25;;;;;;;;;;10449729;28;20060;-75
2023/12/21 07:40:46;;;;;;;0.38;0.17;;;;;;;;;;10468705;28;20075;-72
2023/12/21 07:45:49;;;;;;;0.20;0.20;;;;;;;;;;10481516;28;20040;-74
2023/12/21 07:51:01;;;;;;;0.25;0.20;;;;;;;;;;10448169;28;20053;-74
2023/12/21 07:56:05;;;;;;;0.30;0.30;;;;;;;;;;10448476;28;20052;-74
2023/12/21 08:01:09;;;;;;;0.47;0.30;;;;;;;;;;10450390;28;20045;-74
2023/12/21 08:06:25;;;;;;;1.10;0.25;;;;;;;;;;10451401;28;20314;-74
2023/12/21 08:11:28;;;;;;;0.85;0.20;;;;;;;;;;10453579;28;21089;-75
2023/12/21 08:16:33;;;;;;;0.40;0.20;;;;;;;;;;10432655;28;20545;-75
2023/12/21 08:21:44;;;;;;;0.22;0.20;;;;;;;;;;10449430;28;20504;-74
2023/12/21 08:26:54;;;;;;;0.32;0.28;;;;;;;;;;10462241;28;20043;-75
2023/12/21 08:32:00;;;;;;;0.50;0.20;;;;;;;;;;10466018;28;20056;-75
2023/12/21 08:37:06;;;;;;;1.40;0.30;;;;;;;;;;10464338;28;20125;-75
2023/12/21 08:42:12;;;;;;;0.40;0.30;;;;;;;;;;10448203;28;20048;-75
2023/12/21 08:47:19;;;;;;;0.32;0.17;;;;;;;;;;10462075;28;20497;-75
2023/12/21 08:52:26;;;;;;;0.30;0.30;;;;;;;;;;10450337;28;20049;-74
2023/12/21 08:57:29;;;;;;;0.60;0.25;;;;;;;;;;10447279;28;20043;-75
2023/12/21 09:02:35;;;;;;;0.63;0.20;;;;;;;;;;10446949;28;20048;-75
2023/12/21 09:07:46;;;;;;;1.83;0.30;;;;;;;;;;10465394;28;20049;-75
2023/12/21 09:12:49;;;;;;;0.55;0.40;;;;;;;;;;10480692;28;20132;-75
2023/12/21 09:17:53;;;;;;;0.68;0.38;;;;;;;;;;10447978;28;20068;-74
2023/12/21 09:22:59;;;;;;;0.17;0.17;;;;;;;;;;10447648;28;20040;-74
2023/12/21 09:28:03;;;;;;;1.90;0.17;;;;;;;;;;10469382;28;20044;-74
2023/12/21 09:33:11;;;;;;;0.30;0.30;;;;;;;;;;10470082;28;20053;-75
2023/12/21 09:38:19;;;;;;;0.63;0.20;;;;;;;;;;10477757;28;20037;-75
2023/12/21 09:43:28;;;;;;;0.35;0.20;;;;;;;;;;10465293;28;20137;-75
2023/12/21 09:48:34;;;;;;;0.38;0.30;;;;;;;;;;10459300;28;20044;-74
2023/12/21 09:53:40;;;;;;;0.47;0.28;;;;;;;;;;10476938;28;20040;-74
2023/12/21 09:58:46;;;;;;;0.22;0.10;;;;;;;;;;10481949;28;20470;-75
2023/12/21 10:03:52;;;;;;;0.28;0.22;;;;;;;;;;10452966;28;20143;-75
2023/12/21 10:09:04;;;;;;;0.70;0.52;;;;;;;;;;10470626;28;20045;-74
2023/12/21 10:14:15;;;;;;;1.77;0.40;;;;;;;;;;10491887;28;20048;-73
2023/12/21 10:19:19;;;;;;;0.38;0.32;;;;;;;;;;10472983;28;20115;-74
2023/12/21 10:24:28;;;;;;;0.95;0.30;;;;;;;;;;10474927;28;20033;-74
2023/12/21 10:29:32;;;;;;;0.40;0.40;;;;;;;;;;10469291;28;20101;-75
2023/12/21 10:34:36;;;;;;;0.65;0.47;;;;;;;;;;10470243;28;20394;-74
2023/12/21 10:39:40;;;;;;;;;;;;;;;;;;10451983;28;20134;-75
2023/12/21 10:44:48;;;;;;;1.08;0.40;;;;;;;;;;10466531;28;19966;-74
2023/12/21 10:49:57;;;;;;;0.75;0.50;;;;;;;;;;10472757;28;20056;-74
2023/12/21 10:55:02;;;;;;;1.42;0.57;;;;;;;;;;10437108;28;20052;-73
2023/12/21 11:00:17;;;;;;;0.57;0.40;;;;;;;;;;10469169;28;20105;-75
2023/12/21 11:05:22;;;;;;;0.57;0.30;;;;;;;;;;10473102;28;20128;-75
2023/12/21 11:10:26;;;;;;;0.68;0.45;;;;;;;;;;10468576;28;20041;-74
2023/12/21 11:15:33;;;;;;;1.67;0.40;;;;;;;;;;10476632;28;20121;-75
2023/12/21 11:20:42;;;;;;;0.88;0.28;;;;;;;;;;10472964;28;20151;-74
2023/12/21 11:25:59;;;;;;;1.85;0.30;;;;;;;;;;10466528;28;20116;-76
2023/12/21 11:31:18;;;;;;;0.35;0.32;;;;;;;;;;10471314;28;20041;-76
2023/12/21 11:36:35;;;;;;;0.60;0.40;;;;;;;;;;10486522;28;20494;-76
2023/12/21 11:41:48;;;;;;;1.10;0.50;;;;;;;;;;10479530;28;20043;-76
2023/12/21 11:46:57;;;;;;;0.57;0.22;;;;;;;;;;10477502;28;20075;-76
2023/12/21 11:52:11;;;;;;;0.57;0.22;;;;;;;;;;10470725;28;20147;-76
2023/12/21 11:57:27;;;;;;;0.77;0.40;;;;;;;;;;10470051;28;20041;-76
2023/12/21 12:02:36;;;;;;;0.52;0.30;;;;;;;;;;10449884;28;20083;-75
2023/12/21 12:07:41;;;;;;;1.50;0.40;;;;;;;;;;10463203;28;20135;-76
2023/12/21 12:12:50;;;;;;;0.82;0.40;;;;;;;;;;10442285;28;20048;-77
2023/12/21 12:18:08;;;;;;;0.63;0.50;;;;;;;;;;10464170;28;20047;-76
2023/12/21 12:23:14;;;;;;;0.75;0.57;;;;;;;;;;10453099;28;20071;-73
2023/12/21 12:28:18;;;;;;;0.40;0.30;;;;;;;;;;10452854;28;20040;-78
2023/12/21 12:33:21;;;;;;;;;;;;;;;;;;10450785;28;20054;-76
2023/12/21 12:38:34;;;;;;;0.85;0.38;;;;;;;;;;10479787;28;20646;-75
2023/12/21 12:43:40;;;;;;;0.80;0.30;;;;;;;;;;10469231;28;20500;-75
2023/12/21 12:48:44;;;;;;;0.22;0.22;;;;;;;;;;10449542;28;20037;-75
2023/12/21 12:53:53;;;;;;;0.70;0.30;;;;;;;;;;10452804;28;20121;-76
2023/12/21 12:58:57;;;;;;;1.90;0.40;;;;;;;;;;10481950;28;20049;-75
2023/12/21 13:04:02;;;;;;;0.28;0.28;;;;;;;;;;10439807;28;20049;-75
2023/12/21 13:09:14;;;;;;;1.13;0.20;;;;;;;;;;10479304;28;20048;-77
2023/12/21 13:14:18;;;;;;;0.80;0.20;;;;;;;;;;10446989;28;20137;-77
2023/12/21 13:19:22;;;;;;;0.20;0.15;;;;;;;;;;10468585;28;20447;-76
2023/12/21 13:24:30;;;;;;;0.93;0.30;;;;;;;;;;10461814;28;20056;-77
2023/12/21 13:29:37;;;;;;;0.20;0.20;;;;;;;;;;10466395;28;20221;-75
2023/12/21 13:34:43;;;;;;;0.20;0.20;;;;;;;;;;10462831;28;20068;-74
2023/12/21 13:40:12;;;;;;;0.45;0.32;;;;;;;;;;10462689;28;20189;-75
2023/12/21 13:45:26;;;;;;;0.47;0.20;;;;;;;;;;10461468;28;20083;-75
2023/12/21 13:50:33;;;;;;;0.75;0.40;;;;;;;;;;10468998;28;20048;-74
2023/12/21 13:55:41;;;;;;;;;;;;;;;;;;10453041;28;20490;-75
2023/12/21 14:00:53;;;;;;;0.60;0.30;;;;;;;;;;10458908;28;20373;-74
2023/12/21 14:05:57;;;;;;;0.75;0.22;;;;;;;;;;10451410;28;20029;-75
2023/12/21 14:11:03;;;;;;;0.10;0.10;;;;;;;;;;10465356;28;20050;-75
2023/12/21 14:16:10;;;;;;;0.70;0.30;;;;;;;;;;10473240;28;20087;-74
2023/12/21 14:21:17;;;;;;;0.38;0.30;;;;;;;;;;10488933;28;20049;-74
2023/12/21 14:26:20;;;;;;;0.30;0.20;;;;;;;;;;10476648;28;20079;-74
2023/12/21 14:31:32;;;;;;;;;;;;;;;;;;10453164;28;20081;-75
2023/12/21 14:36:39;;;;;;;0.30;0.17;;;;;;;;;;10455442;28;20005;-74
2023/12/21 14:41:54;;;;;;;0.20;0.20;;;;;;;;;;10462764;28;20493;-74
2023/12/21 14:47:04;;;;;;;1.75;0.22;;;;;;;;;;10457917;28;20426;-75
2023/12/21 14:52:12;;;;;;;0.73;0.35;;;;;;;;;;10476928;28;20118;-75
2023/12/21 14:57:17;;;;;;;1.05;0.20;;;;;;;;;;10461654;28;20029;-75
2023/12/21 15:02:27;;;;;;;0.50;0.32;;;;;;;;;;10483806;28;20091;-74
2023/12/21 15:07:33;;;;;;;0.22;0.22;;;;;;;;;;10469039;28;20033;-75
2023/12/21 15:12:42;;;;;;;0.40;0.20;;;;;;;;;;10449508;28;20045;-75
2023/12/21 15:17:45;;;;;;;0.20;0.20;;;;;;;;;;10485971;28;20109;-75
2023/12/21 15:22:51;;;;;;;0.13;0.10;;;;;;;;;;10467874;28;20055;-75
2023/12/21 15:27:57;;;;;;;1.70;0.35;;;;;;;;;;10468251;28;20177;-75
2023/12/21 15:33:02;;;;;;;0.20;0.20;;;;;;;;;;10456209;28;20138;-76
2023/12/21 15:38:08;;;;;;;0.38;0.20;;;;;;;;;;10474941;28;20484;-76
2023/12/21 15:43:12;;;;;;;0.52;0.20;;;;;;;;;;10485165;28;20140;-75
2023/12/21 15:48:16;;;;;;;0.52;0.45;;;;;;;;;;10483031;28;20098;-76
2023/12/21 15:53:27;;;;;;;0.40;0.30;;;;;;;;;;10469077;28;20509;-75
2023/12/21 15:58:33;;;;;;;0.40;0.20;;;;;;;;;;10476405;28;20036;-75
2023/12/21 16:03:46;;;;;;;0.63;0.20;;;;;;;;;;10451624;28;20462;-75
2023/12/21 16:09:03;;;;;;;0.63;0.20;;;;;;;;;;10479268;28;20048;-74
2023/12/21 16:14:07;;;;;;;0.55;0.38;;;;;;;;;;10474891;28;20056;-75
2023/12/21 16:19:10;;;;;;;0.20;0.20;;;;;;;;;;10451979;28;20052;-75
2023/12/21 16:24:16;;;;;;;1.13;0.35;;;;;;;;;;10472158;28;20051;-75
2023/12/21 16:29:21;;;;;;;0.52;0.25;;;;;;;;;;10454063;28;20055;-74
2023/12/21 16:34:27;;;;;;;;;;;;;;;;;;10469234;28;20051;-76
2023/12/21 16:39:37;;;;;;;0.35;0.22;;;;;;;;;;10471489;28;19935;-76
2023/12/21 16:44:46;;;;;;;1.00;0.32;;;;;;;;;;10468954;28;20135;-76
2023/12/21 16:49:50;;;;;;;0.32;0.30;;;;;;;;;;10463367;28;20040;-75
2023/12/21 16:54:56;;;;;;;0.32;0.15;;;;;;;;;;10457010;28;20053;-75
2023/12/21 17:00:01;;;;;;;3.03;0.43;;;;;;;;;;10470570;28;20123;-75
2023/12/21 17:05:08;;;;;;;0.40;0.40;;;;;;;;;;10475194;28;20132;-74
2023/12/21 17:10:18;;;;;;;2.47;0.40;;;;;;;;;;10454321;28;20457;-75
2023/12/21 17:15:29;;;;;;;0.63;0.47;;;;;;;;;;10452091;28;20453;-76
2023/12/21 17:20:35;;;;;;;0.93;0.50;;;;;;;;;;10480152;28;20568;-76
2023/12/21 17:25:46;;;;;;;0.77;0.40;;;;;;;;;;10476183;28;20147;-75
2023/12/21 17:30:54;;;;;;;0.32;0.20;;;;;;;;;;10456170;28;20067;-75
2023/12/21 17:36:03;;;;;;;0.70;0.43;;;;;;;;;;10472679;28;20484;-75
2023/12/21 17:41:08;;;;;;;2.30;0.35;;;;;;;;;;10459727;28;20056;-76
2023/12/21 17:46:11;;;;;;;0.70;0.40;;;;;;;;;;10469879;28;20102;-76
2023/12/21 17:51:28;;;;;;;0.22;0.22;;;;;;;;;;10490389;28;20038;-76
2023/12/21 17:56:37;;;;;;;0.15;0.15;;;;;;;;;;10460937;28;20041;-75
2023/12/21 18:01:46;;;;;;;1.65;0.38;;;;;;;;;;10482867;28;20110;-75
2023/12/21 18:06:53;;;;;;;0.55;0.50;;;;;;;;;;10472134;28;20291;-74
2023/12/21 18:12:00;;;;;;;1.13;0.50;;;;;;;;;;10469826;28;20048;-74
2023/12/21 18:17:03;;;;;;;0.88;0.40;;;;;;;;;;10476485;28;20053;-74
2023/12/21 18:22:08;;;;;;;1.70;0.40;;;;;;;;;;10461225;28;20062;-75
2023/12/21 18:27:19;;;;;;;0.43;0.30;;;;;;;;;;10476064;28;20040;-75
2023/12/21 18:32:26;;;;;;;0.22;0.20;;;;;;;;;;10477889;28;20497;-75
2023/12/21 18:37:30;;;;;;;1.40;0.30;;;;;;;;;;10478679;28;20049;-75
2023/12/21 18:42:36;;;;;;;0.43;0.40;;;;;;;;;;10462731;28;20482;-75
2023/12/21 18:47:41;;;;;;;0.32;0.30;;;;;;;;;;10457961;28;20485;-75
2023/12/21 18:52:46;;;;;;;0.63;0.38;;;;;;;;;;10475832;28;20336;-75
2023/12/21 18:58:03;;;;;;;0.65;0.35;;;;;;;;;;10464451;28;20405;-74
2023/12/21 19:03:09;;;;;;;0.47;0.40;;;;;;;;;;10475712;28;20055;-74
2023/12/21 19:08:14;;;;;;;1.00;0.50;;;;;;;;;;10481245;28;20588;-76
2023/12/21 19:13:27;;;;;;;0.52;0.50;;;;;;;;;;10462022;28;20061;-77
2023/12/21 19:18:33;;;;;;;0.60;0.40;;;;;;;;;;10499267;28;20036;-76
2023/12/21 19:23:39;;;;;;;0.65;0.50;;;;;;;;;;10465604;28;20131;-76
2023/12/21 19:28:48;;;;;;;0.30;0.20;;;;;;;;;;10470348;28;20037;-76
2023/12/21 19:33:54;;;;;;;2.22;0.47;;;;;;;;;;10476121;28;20044;-76
2023/12/21 19:39:04;;;;;;;0.30;0.30;;;;;;;;;;10461457;28;20121;-77
2023/12/21 19:44:12;;;;;;;0.50;0.40;;;;;;;;;;10477206;28;20489;-77
2023/12/21 19:49:15;;;;;;;0.30;0.28;;;;;;;;;;10470542;28;20056;-77
2023/12/21 19:54:28;;;;;;;0.20;0.20;;;;;;;;;;10454418;28;20047;-79
2023/12/21 19:59:37;;;;;;;0.52;0.32;;;;;;;;;;10472356;28;20114;-78
2023/12/21 20:04:48;;;;;;;0.70;0.40;;;;;;;;;;10466272;28;20044;-77
2023/12/21 20:09:52;;;;;;;0.40;0.40;;;;;;;;;;10466228;28;20622;-77
2023/12/21 20:15:01;;;;;;;0.80;0.40;;;;;;;;;;10472239;28;20376;-77
2023/12/21 20:20:05;;;;;;;0.40;0.25;;;;;;;;;;10471006;28;20094;-78
2023/12/21 20:25:15;;;;;;;0.93;0.60;;;;;;;;;;10471033;28;20475;-77
2023/12/21 20:30:42;;;;;;;1.00;0.55;;;;;;;;;;10469788;28;20043;-78
2023/12/21 20:35:51;;;;;;;0.68;0.50;;;;;;;;;;10472551;28;20097;-78
2023/12/21 20:40:55;;;;;;;0.43;0.40;;;;;;;;;;10471792;28;20094;-77
2023/12/21 20:46:01;;;;;;;0.65;0.40;;;;;;;;;;10480460;28;20052;-77
2023/12/21 20:51:10;;;;;;;0.35;0.22;;;;;;;;;;10463633;28;20425;-78
2023/12/21 20:56:23;;;;;;;0.45;0.30;;;;;;;;;;10495011;28;20076;-77
2023/12/21 21:01:45;;;;;;;0.20;0.20;;;;;;;;;;10457439;28;20041;-77
2023/12/21 21:06:53;;;;;;;0.88;0.40;;;;;;;;;;10471928;28;20139;-76
2023/12/21 21:12:11;;;;;;;0.57;0.30;;;;;;;;;;10483338;28;20035;-78
2023/12/21 21:17:24;;;;;;;0.30;0.30;;;;;;;;;;10462680;28;20965;-78
2023/12/21 21:28:14;;;;;;;0.32;0.17;;;;;;;;;;10505741;28;20055;-87
2023/12/21 21:33:19;;;;;;;0.75;0.25;;;;;;;;;;10497367;28;20060;-83
2023/12/21 21:38:34;;;;;;;1.40;0.30;;;;;;;;;;10474841;28;20122;-83
2023/12/21 21:43:42;;;;;;;2.43;0.40;;;;;;;;;;10462051;28;20301;-83
2023/12/21 21:48:47;;;;;;;1.50;0.47;;;;;;;;;;10479822;28;20051;-85
2023/12/21 21:53:58;;;;;;;0.32;0.20;;;;;;;;;;10465693;28;20048;-83
2023/12/21 21:59:03;;;;;;;0.77;0.30;;;;;;;;;;10500796;28;20036;-83
2023/12/21 22:04:07;;;;;;;0.85;0.40;;;;;;;;;;10481666;28;20048;-83
2023/12/21 22:09:15;;;;;;;1.55;0.47;;;;;;;;;;10480775;28;20040;-86
2023/12/21 22:14:23;;;;;;;2.38;0.50;;;;;;;;;;10465920;28;20060;-85
2023/12/21 22:19:29;;;;;;;0.57;0.35;;;;;;;;;;10474292;28;20052;-88
2023/12/21 22:24:43;;;;;;;0.40;0.40;;;;;;;;;;10474994;28;20047;-83
2023/12/21 22:35:11;;;;;;;2.15;0.28;;;;;;;;;;10476148;28;20569;-86
2023/12/21 22:40:24;;;;;;;0.82;0.43;;;;;;;;;;10475349;28;20506;-83
2023/12/21 22:45:28;;;;;;;0.32;0.30;;;;;;;;;;10477797;28;20067;-82
2023/12/21 22:50:33;;;;;;;1.75;0.60;;;;;;;;;;10445180;28;20380;-82
2023/12/21 22:55:40;;;;;;;1.20;0.50;;;;;;;;;;10469811;28;20512;-83
2023/12/21 23:00:50;;;;;;;;;;;;;;;;;;10475326;28;20036;-82
2023/12/21 23:05:55;;;;;;;2.70;0.47;;;;;;;;;;10474961;28;20433;-82
2023/12/21 23:11:01;;;;;;;;;;;;;;;;;;10456070;28;20051;-85
2023/12/21 23:16:07;;;;;;;1.55;0.35;;;;;;;;;;10475389;28;20227;-85
2023/12/21 23:21:16;;;;;;;0.75;0.20;;;;;;;;;;10465485;28;20040;-87
2023/12/21 23:26:30;;;;;;;1.23;0.20;;;;;;;;;;10474541;28;20048;-84
2023/12/21 23:31:39;;;;;;;1.88;0.30;;;;;;;;;;10540397;28;20055;-89
2023/12/21 23:42:04;;;;;;;0.25;0.20;;;;;;;;;;10510894;28;20159;-85
2023/12/21 23:47:18;;;;;;;2.05;0.52;;;;;;;;;;10493692;28;20044;-85
2023/12/21 23:52:34;;;;;;;0.40;0.32;;;;;;;;;;10469546;28;20076;-84
2023/12/21 23:57:46;;;;;;;1.60;0.30;;;;;;;;;;10482271;28;20055;-91
